createdAt,value
2019-02-04T00:02:11.109Z,13.70
2019-02-04T00:04:40.667Z,14.83
2019-02-04T00:07:10.742Z,12.23
2019-02-04T00:09:39.682Z,12.73
2019-02-04T00:12:09.249Z,12.23
2019-02-04T00:14:39.553Z,14.55
2019-02-04T00:17:08.773Z,14.10
2019-02-04T00:19:37.977Z,12.50
2019-02-04T00:22:07.353Z,16.60
2019-02-04T00:24:36.178Z,17.05
2019-02-04T00:27:05.338Z,17.00
2019-02-04T00:29:34.741Z,22.32
2019-02-04T00:32:04.493Z,19.32
2019-02-04T00:34:34.239Z,18.62
2019-02-04T00:37:05.996Z,13.65
2019-02-04T00:39:35.677Z,14.85
2019-02-04T00:42:07.059Z,14.78
2019-02-04T00:44:36.072Z,15.25
2019-02-04T00:47:04.946Z,14.35
2019-02-04T00:49:35.079Z,14.38
2019-02-04T00:52:05.893Z,18.10
2019-02-04T00:54:36.724Z,15.43
2019-02-04T00:57:07.333Z,12.18
2019-02-04T00:59:44.908Z,14.90
2019-02-04T01:02:56.572Z,16.82
2019-02-04T01:05:25.977Z,13.00
2019-02-04T01:07:57.441Z,17.77
2019-02-04T01:10:29.479Z,13.83
2019-02-04T01:12:58.871Z,17.37
2019-02-04T01:15:41.482Z,16.48
2019-02-04T01:18:11.826Z,15.43
2019-02-04T01:20:41.667Z,16.05
2019-02-04T01:23:10.587Z,21.62
2019-02-04T01:25:39.780Z,18.02
2019-02-04T01:28:09.062Z,24.07
2019-02-04T01:30:37.915Z,25.37
2019-02-04T01:33:07.000Z,20.05
2019-02-04T01:35:40.005Z,17.70
2019-02-04T01:38:10.195Z,15.72
2019-02-04T01:40:39.505Z,15.45
2019-02-04T01:43:09.999Z,14.13
2019-02-04T01:45:38.911Z,18.95
2019-02-04T01:48:08.068Z,19.80
2019-02-04T01:50:36.942Z,16.70
2019-02-04T01:53:07.780Z,17.75
2019-02-04T01:55:36.724Z,18.75
2019-02-04T01:58:13.069Z,21.10
2019-02-04T02:00:42.158Z,21.75
2019-02-04T02:03:11.283Z,21.12
2019-02-04T02:05:40.722Z,21.70
2019-02-04T02:08:09.650Z,20.27
2019-02-04T02:10:39.166Z,26.93
2019-02-04T02:13:10.657Z,22.52
2019-02-04T02:15:40.327Z,25.00
2019-02-04T02:18:09.850Z,23.98
2019-02-04T02:20:38.723Z,24.63
2019-02-04T02:23:12.580Z,21.45
2019-02-04T02:25:42.701Z,20.68
2019-02-04T02:28:11.959Z,22.37
2019-02-04T02:30:40.950Z,21.95
2019-02-04T02:33:10.252Z,21.33
2019-02-04T02:35:40.257Z,20.70
2019-02-04T02:38:09.780Z,23.85
2019-02-04T02:40:39.695Z,22.82
2019-02-04T02:43:11.586Z,23.80
2019-02-04T02:45:39.560Z,25.55
2019-02-04T02:48:10.317Z,24.75
2019-02-04T02:50:40.970Z,27.55
2019-02-04T02:53:10.484Z,25.55
2019-02-04T02:55:39.811Z,20.30
2019-02-04T02:58:08.803Z,21.33
2019-02-04T03:00:37.701Z,19.52
2019-02-04T03:03:06.714Z,18.70
2019-02-04T03:05:35.569Z,20.32
2019-02-04T03:08:07.627Z,21.45
2019-02-04T03:10:38.512Z,23.12
2019-02-04T03:13:09.494Z,21.07
2019-02-04T03:15:38.804Z,22.32
2019-02-04T03:18:08.108Z,21.45
2019-02-04T03:20:37.136Z,24.60
2019-02-04T03:23:07.232Z,21.73
2019-02-04T03:25:41.038Z,19.30
2019-02-04T03:28:12.583Z,19.40
2019-02-04T03:30:41.930Z,19.15
2019-02-04T03:33:14.694Z,20.95
2019-02-04T03:35:45.400Z,20.27
2019-02-04T03:38:14.749Z,19.65
2019-02-04T03:40:44.036Z,23.38
2019-02-04T03:43:13.329Z,23.10
2019-02-04T03:45:44.629Z,25.48
2019-02-04T03:48:13.849Z,23.65
2019-02-04T03:50:43.967Z,23.30
2019-02-04T03:53:13.121Z,21.23
2019-02-04T03:55:42.379Z,21.75
2019-02-04T03:58:13.434Z,24.77
2019-02-04T04:00:42.606Z,24.15
2019-02-04T04:03:12.885Z,27.20
2019-02-04T04:05:42.205Z,23.27
2019-02-04T04:08:11.156Z,23.65
2019-02-04T04:10:41.767Z,25.77
2019-02-04T04:13:11.500Z,29.42
2019-02-04T04:15:41.409Z,36.08
2019-02-04T04:18:15.861Z,31.35
2019-02-04T04:20:44.992Z,31.77
2019-02-04T04:23:14.219Z,27.25
2019-02-04T04:25:44.221Z,25.17
2019-02-04T04:28:13.101Z,22.02
2019-02-04T04:30:42.036Z,24.05
2019-02-04T04:33:10.981Z,24.90
2019-02-04T04:35:40.345Z,22.50
2019-02-04T04:38:12.188Z,20.72
2019-02-04T04:40:41.517Z,22.75
2019-02-04T04:43:11.291Z,22.73
2019-02-04T04:45:41.431Z,22.07
2019-02-04T04:48:12.039Z,21.20
2019-02-04T04:50:41.536Z,19.75
2019-02-04T04:53:10.900Z,21.52
2019-02-04T04:55:40.381Z,20.15
2019-02-04T04:58:09.850Z,20.20
2019-02-04T05:00:39.674Z,20.05
2019-02-04T05:03:11.195Z,20.80
2019-02-04T05:05:41.284Z,20.65
2019-02-04T05:08:10.484Z,19.57
2019-02-04T05:10:40.048Z,19.70
2019-02-04T05:13:08.943Z,19.32
2019-02-04T05:15:37.735Z,19.98
2019-02-04T05:18:07.157Z,20.90
2019-02-04T05:20:36.414Z,21.48
2019-02-04T05:23:05.376Z,20.82
2019-02-04T05:25:35.461Z,20.60
2019-02-04T05:28:06.680Z,21.80
2019-02-04T05:30:39.071Z,19.87
2019-02-04T05:33:08.169Z,19.70
2019-02-04T05:35:39.906Z,22.05
2019-02-04T05:38:10.655Z,21.30
2019-02-04T05:40:40.017Z,22.50
2019-02-04T05:43:09.348Z,19.55
2019-02-04T05:45:38.728Z,20.23
2019-02-04T05:48:08.843Z,19.90
2019-02-04T05:50:38.354Z,19.75
2019-02-04T05:53:08.684Z,19.40
2019-02-04T05:55:37.922Z,20.00
2019-02-04T05:58:08.419Z,21.10
2019-02-04T06:00:40.475Z,19.67
2019-02-04T06:03:09.503Z,20.88
2019-02-04T06:05:38.977Z,21.68
2019-02-04T06:08:08.022Z,21.25
2019-02-04T06:10:37.859Z,17.35
2019-02-04T06:13:09.528Z,20.17
2019-02-04T06:15:38.893Z,21.85
2019-02-04T06:18:12.376Z,21.75
2019-02-04T06:23:09.454Z,20.02
2019-02-04T06:25:38.444Z,20.48
2019-02-04T06:28:07.992Z,19.27
2019-02-04T06:30:39.806Z,18.52
2019-02-04T06:33:09.157Z,19.55
2019-02-04T06:35:38.406Z,18.67
2019-02-04T06:38:08.012Z,18.75
2019-02-04T06:40:38.159Z,17.02
2019-02-04T06:43:07.250Z,20.17
2019-02-04T06:45:38.253Z,16.67
2019-02-04T06:48:08.487Z,20.92
2019-02-04T06:50:37.467Z,19.10
2019-02-04T06:53:06.887Z,20.60
2019-02-04T06:55:48.279Z,20.80
2019-02-04T06:58:17.611Z,19.87
2019-02-04T07:00:47.219Z,20.30
2019-02-04T07:03:16.413Z,18.02
2019-02-04T07:05:47.162Z,19.30
2019-02-04T07:08:16.091Z,18.92
2019-02-04T07:10:45.043Z,20.32
2019-02-04T07:13:14.111Z,19.27
2019-02-04T07:15:43.809Z,19.07
2019-02-04T07:18:12.903Z,18.98
2019-02-04T07:20:41.924Z,18.62
2019-02-04T07:23:12.819Z,20.77
2019-02-04T07:25:42.767Z,19.12
2019-02-04T07:28:18.388Z,18.32
2019-02-04T07:30:49.865Z,19.25
2019-02-04T07:33:20.064Z,19.75
2019-02-04T07:35:50.028Z,19.75
2019-02-04T07:38:19.398Z,18.87
2019-02-04T07:40:49.122Z,20.08
2019-02-04T07:43:18.585Z,18.55
2019-02-04T07:45:54.820Z,17.62
2019-02-04T07:48:23.557Z,19.12
2019-02-04T07:50:52.279Z,19.05
2019-02-04T07:53:21.113Z,19.10
2019-02-04T07:55:50.157Z,19.52
2019-02-04T07:58:18.889Z,19.27
2019-02-04T08:00:47.605Z,19.57
2019-02-04T08:03:16.447Z,19.25
2019-02-04T08:05:45.317Z,19.27
2019-02-04T08:08:14.412Z,17.50
2019-02-04T08:10:43.401Z,17.90
2019-02-04T08:13:12.472Z,19.37
2019-02-04T08:15:41.313Z,17.12
2019-02-04T08:18:10.133Z,17.07
2019-02-04T08:20:39.922Z,17.30
2019-02-04T08:23:08.684Z,17.35
2019-02-04T08:25:37.719Z,18.05
2019-02-04T08:28:06.466Z,18.40
2019-02-04T08:30:38.170Z,18.02
2019-02-04T08:33:06.835Z,17.50
2019-02-04T08:35:35.834Z,17.85
2019-02-04T08:38:04.651Z,19.02
2019-02-04T08:40:33.893Z,17.75
2019-02-04T08:43:02.641Z,19.57
2019-02-04T08:45:31.408Z,18.25
2019-02-04T08:48:00.222Z,17.70
2019-02-04T08:50:28.974Z,19.23
2019-02-04T08:52:58.024Z,19.25
2019-02-04T08:55:26.780Z,18.25
2019-02-04T08:57:55.748Z,18.82
2019-02-04T09:00:24.602Z,18.77
2019-02-04T09:02:53.316Z,18.50
2019-02-04T09:05:22.018Z,18.10
2019-02-04T09:07:50.688Z,18.15
2019-02-04T09:10:28.057Z,19.52
2019-02-04T09:12:56.730Z,18.85
2019-02-04T09:15:25.522Z,19.10
2019-02-04T09:17:54.354Z,19.23
2019-02-04T09:20:24.657Z,18.10
2019-02-04T09:22:53.360Z,19.37
2019-02-04T09:25:22.609Z,19.37
2019-02-04T09:27:51.603Z,17.48
2019-02-04T09:30:21.702Z,18.62
2019-02-04T09:32:50.445Z,18.87
2019-02-04T09:35:19.911Z,17.80
2019-02-04T09:37:48.733Z,18.30
2019-02-04T09:40:31.783Z,18.37
2019-02-04T09:43:00.569Z,17.35
2019-02-04T09:45:29.254Z,17.25
2019-02-04T09:47:58.027Z,18.17
2019-02-04T09:50:27.318Z,18.52
2019-02-04T09:52:56.827Z,16.20
2019-02-04T09:55:28.163Z,16.12
2019-02-04T09:57:56.950Z,18.48
2019-02-04T10:00:27.451Z,16.93
2019-02-04T10:02:56.241Z,16.35
2019-02-04T10:05:24.954Z,16.20
2019-02-04T10:07:53.628Z,17.92
2019-02-04T10:10:24.200Z,17.45
2019-02-04T10:12:52.928Z,16.80
2019-02-04T10:15:24.986Z,16.97
2019-02-04T10:17:53.813Z,17.07
2019-02-04T10:20:33.040Z,15.90
2019-02-04T10:22:53.064Z,16.25
2019-02-04T10:25:23.722Z,17.30
2019-02-04T10:27:52.463Z,16.05
2019-02-04T10:30:22.181Z,15.35
2019-02-04T10:32:50.833Z,17.17
2019-02-04T10:35:19.738Z,16.70
2019-02-04T10:37:49.224Z,17.07
2019-02-04T10:40:19.856Z,16.48
2019-02-04T10:42:48.656Z,17.87
2019-02-04T10:45:17.838Z,16.67
2019-02-04T10:47:46.581Z,17.50
2019-02-04T10:50:17.943Z,17.37
2019-02-04T10:52:47.109Z,16.07
2019-02-04T10:55:15.991Z,16.60
2019-02-04T10:57:45.931Z,15.40
2019-02-04T11:00:17.088Z,16.15
2019-02-04T11:02:45.951Z,17.45
2019-02-04T11:05:17.325Z,17.32
2019-02-04T11:07:46.268Z,16.62
2019-02-04T11:10:15.683Z,15.78
2019-02-04T11:12:44.520Z,14.98
2019-02-04T11:15:13.997Z,15.88
2019-02-04T11:17:42.913Z,17.07
2019-02-04T11:20:18.179Z,16.00
2019-02-04T11:22:47.043Z,16.15
2019-02-04T11:25:15.866Z,15.70
2019-02-04T11:27:44.597Z,15.13
2019-02-04T11:30:17.808Z,16.32
2019-02-04T11:32:47.808Z,16.25
2019-02-04T11:35:16.645Z,15.83
2019-02-04T11:37:45.459Z,17.32
2019-02-04T11:40:16.163Z,16.90
2019-02-04T11:42:44.959Z,16.77
2019-02-04T11:45:13.765Z,17.52
2019-02-04T11:47:42.623Z,16.82
2019-02-04T11:50:11.561Z,17.23
2019-02-04T11:52:40.281Z,16.42
2019-02-04T11:55:09.871Z,16.95
2019-02-04T11:57:38.577Z,15.80
2019-02-04T12:00:09.617Z,16.07
2019-02-04T12:02:38.847Z,17.40
2019-02-04T12:05:09.493Z,15.48
2019-02-04T12:07:38.310Z,15.08
2019-02-04T12:10:09.040Z,15.93
2019-02-04T12:12:37.882Z,15.93
2019-02-04T12:15:10.172Z,14.43
2019-02-04T12:17:39.127Z,14.43
2019-02-04T12:20:09.388Z,15.95
2019-02-04T12:22:38.174Z,15.13
2019-02-04T12:25:08.744Z,13.45
2019-02-04T12:27:37.539Z,14.00
2019-02-04T12:30:07.536Z,15.55
2019-02-04T12:32:36.573Z,14.05
2019-02-04T12:35:06.536Z,13.45
2019-02-04T12:37:35.539Z,12.90
2019-02-04T12:40:04.814Z,13.48
2019-02-04T12:42:33.613Z,13.48
2019-02-04T12:45:02.373Z,11.63
2019-02-04T12:47:31.395Z,10.90
2019-02-04T12:50:00.353Z,12.47
2019-02-04T12:52:29.174Z,12.33
2019-02-04T12:54:58.053Z,12.23
2019-02-04T12:57:26.818Z,11.25
2019-02-04T12:59:55.625Z,10.10
2019-02-04T13:02:24.608Z,9.70
2019-02-04T13:04:53.666Z,10.10
2019-02-04T13:07:22.405Z,11.08
2019-02-04T13:09:51.533Z,9.45
2019-02-04T13:12:20.322Z,10.60
2019-02-04T13:14:49.045Z,11.25
2019-02-04T13:17:18.254Z,11.78
2019-02-04T13:19:47.315Z,8.65
2019-02-04T13:22:16.079Z,9.23
2019-02-04T13:24:44.910Z,10.20
2019-02-04T13:27:13.638Z,9.25
2019-02-04T13:29:42.488Z,8.60
2019-02-04T13:32:11.549Z,9.60
2019-02-04T13:34:40.315Z,9.65
2019-02-04T13:37:09.189Z,10.35
2019-02-04T13:39:37.946Z,9.90
2019-02-04T13:42:07.006Z,8.40
2019-02-04T13:44:36.162Z,9.85
2019-02-04T13:47:05.791Z,8.00
2019-02-04T13:49:34.637Z,12.82
2019-02-04T13:52:03.402Z,9.63
2019-02-04T13:54:32.224Z,8.48
2019-02-04T13:57:03.646Z,9.38
2019-02-04T13:59:31.431Z,8.90
2019-02-04T14:02:00.386Z,10.43
2019-02-04T14:04:29.170Z,10.68
2019-02-04T14:06:57.958Z,10.30
2019-02-04T14:09:26.848Z,9.80
2019-02-04T14:11:55.594Z,10.60
2019-02-04T14:14:24.327Z,13.00
2019-02-04T14:16:53.154Z,12.25
2019-02-04T14:19:21.838Z,11.45
2019-02-04T14:21:50.660Z,10.15
2019-02-04T14:24:19.416Z,9.10
2019-02-04T14:26:48.128Z,10.08
2019-02-04T14:29:17.285Z,9.15
2019-02-04T14:31:46.198Z,9.25
2019-02-04T14:34:15.215Z,8.73
2019-02-04T14:36:43.983Z,8.53
2019-02-04T14:39:14.965Z,8.98
2019-02-04T14:41:43.960Z,9.48
2019-02-04T14:44:38.372Z,8.93
2019-02-04T14:47:37.903Z,9.45
2019-02-04T14:50:40.216Z,9.38
2019-02-04T14:53:48.933Z,10.13
2019-02-04T14:56:43.776Z,9.95
2019-02-04T14:59:39.678Z,12.85
2019-02-04T15:02:41.341Z,8.88
2019-02-04T15:05:18.252Z,10.00
2019-02-04T15:08:32.914Z,9.70
2019-02-04T15:11:48.842Z,10.10
2019-02-04T15:14:44.732Z,9.65
2019-02-04T15:18:03.795Z,8.60
2019-02-04T15:21:14.594Z,8.80
2019-02-04T15:23:51.450Z,9.38
2019-02-04T15:26:38.223Z,9.60
2019-02-04T15:29:20.830Z,9.78
2019-02-04T15:32:21.903Z,9.73
2019-02-04T15:35:11.113Z,16.27
2019-02-04T15:38:24.480Z,10.28
2019-02-04T15:41:27.672Z,11.78
2019-02-04T15:44:34.493Z,10.68
2019-02-04T15:47:48.697Z,10.10
2019-02-04T15:51:29.136Z,10.63
2019-02-04T15:53:59.973Z,10.72
2019-02-04T15:56:28.773Z,10.45
2019-02-04T15:58:57.590Z,9.58
2019-02-04T16:01:26.408Z,10.15
2019-02-04T16:03:55.257Z,10.25
2019-02-04T16:06:24.115Z,10.03
2019-02-04T16:08:52.883Z,9.83
2019-02-04T16:11:21.655Z,10.00
2019-02-04T16:13:50.448Z,9.38
2019-02-04T16:16:19.535Z,8.50
2019-02-04T16:18:48.439Z,9.83
2019-02-04T16:21:17.297Z,8.15
2019-02-04T16:23:46.272Z,9.63
2019-02-04T16:26:15.383Z,9.65
2019-02-04T16:28:44.359Z,9.43
2019-02-04T16:31:13.241Z,10.03
2019-02-04T16:33:42.006Z,8.30
2019-02-04T16:36:10.827Z,10.05
2019-02-04T16:38:39.832Z,11.25
2019-02-04T16:41:08.996Z,9.28
2019-02-04T16:43:38.154Z,10.15
2019-02-04T16:46:06.987Z,8.83
2019-02-04T16:48:35.857Z,9.40
2019-02-04T16:51:11.569Z,9.55
2019-02-04T16:53:35.189Z,10.40
2019-02-04T16:56:04.081Z,9.40
2019-02-04T16:58:32.978Z,9.80
2019-02-04T17:01:01.847Z,9.63
2019-02-04T17:03:31.289Z,10.23
2019-02-04T17:06:00.088Z,9.48
2019-02-04T17:08:29.320Z,8.65
2019-02-04T17:10:58.095Z,9.60
2019-02-04T17:13:26.882Z,8.73
2019-02-04T17:15:55.733Z,10.20
2019-02-04T17:18:24.499Z,10.48
2019-02-04T17:20:53.257Z,10.48
2019-02-04T17:23:22.852Z,9.68
2019-02-04T17:25:51.653Z,11.22
2019-02-04T17:28:20.434Z,10.75
2019-02-04T17:30:49.256Z,11.03
2019-02-04T17:33:18.311Z,11.65
2019-02-04T17:35:47.252Z,11.78
2019-02-04T17:38:16.033Z,11.48
2019-02-04T17:40:44.814Z,11.03
2019-02-04T17:43:13.688Z,11.43
2019-02-04T17:45:43.929Z,11.73
2019-02-04T17:48:12.748Z,11.80
2019-02-04T17:50:41.572Z,11.90
2019-02-04T17:53:10.521Z,10.68
2019-02-04T17:55:39.407Z,12.07
2019-02-04T17:58:08.271Z,11.15
2019-02-04T18:00:43.501Z,13.62
2019-02-04T18:03:12.329Z,11.85
2019-02-04T18:05:41.190Z,11.25
2019-02-04T18:08:10.159Z,11.78
2019-02-04T18:10:38.964Z,12.47
2019-02-04T18:13:07.778Z,12.80
2019-02-04T18:15:37.310Z,12.43
2019-02-04T18:18:06.184Z,13.28
2019-02-04T18:20:35.133Z,14.25
2019-02-04T18:23:06.346Z,12.90
2019-02-04T18:25:35.161Z,11.10
2019-02-04T18:28:04.002Z,11.65
2019-02-04T18:30:33.232Z,13.70
2019-02-04T18:33:02.015Z,13.95
2019-02-04T18:35:31.191Z,12.18
2019-02-04T18:38:00.313Z,11.95
2019-02-04T18:40:29.271Z,11.97
2019-02-04T18:42:58.473Z,12.65
2019-02-04T18:45:28.258Z,12.10
2019-02-04T18:47:57.125Z,10.55
2019-02-04T18:50:26.353Z,12.47
2019-02-04T18:52:55.174Z,11.55
2019-02-04T18:55:28.972Z,11.28
2019-02-04T18:57:57.840Z,9.70
2019-02-04T19:00:27.737Z,10.53
2019-02-04T19:02:56.563Z,10.53
2019-02-04T19:05:26.831Z,10.98
2019-02-04T19:07:55.815Z,11.10
2019-02-04T19:10:24.589Z,8.85
2019-02-04T19:12:53.458Z,9.98
2019-02-04T19:15:23.090Z,9.80
2019-02-04T19:17:53.667Z,9.43
2019-02-04T19:20:22.863Z,9.83
2019-02-04T19:22:51.755Z,9.30
2019-02-04T19:25:20.739Z,9.40
2019-02-04T19:27:49.716Z,9.48
2019-02-04T19:30:24.716Z,9.53
2019-02-04T19:32:54.057Z,9.30
2019-02-04T19:35:22.858Z,9.58
2019-02-04T19:37:51.901Z,8.55
2019-02-04T19:40:20.958Z,8.83
2019-02-04T19:42:49.735Z,11.53
2019-02-04T19:45:21.745Z,11.10
2019-02-04T19:47:50.964Z,7.60
2019-02-04T19:50:22.538Z,8.98
2019-02-04T19:52:51.651Z,8.30
2019-02-04T19:55:20.549Z,10.68
2019-02-04T19:57:50.065Z,8.60
2019-02-04T20:00:20.641Z,9.78
2019-02-04T20:02:49.886Z,9.65
2019-02-04T20:05:20.172Z,9.58
2019-02-04T20:07:49.042Z,8.85
2019-02-04T20:10:19.250Z,9.20
2019-02-04T20:12:48.863Z,8.90
2019-02-04T20:15:20.648Z,8.80
2019-02-04T20:17:51.089Z,9.68
2019-02-04T20:20:20.088Z,8.98
2019-02-04T20:22:48.959Z,7.85
2019-02-04T20:25:22.892Z,9.23
2019-02-04T20:27:52.149Z,8.85
2019-02-04T20:30:29.864Z,7.60
2019-02-04T20:33:00.163Z,8.83
2019-02-04T20:35:29.025Z,8.20
2019-02-04T20:37:58.150Z,8.70
2019-02-04T20:40:27.160Z,8.23
2019-02-04T20:42:55.963Z,7.97
2019-02-04T20:45:25.330Z,7.95
2019-02-04T20:47:54.176Z,7.50
2019-02-04T20:50:27.704Z,8.13
2019-02-04T20:52:56.572Z,7.37
2019-02-04T20:55:25.385Z,7.30
2019-02-04T20:57:54.267Z,7.37
2019-02-04T21:00:26.874Z,7.97
2019-02-04T21:02:55.615Z,6.80
2019-02-04T21:05:24.444Z,6.40
2019-02-04T21:07:53.247Z,7.58
2019-02-04T21:10:22.977Z,7.25
2019-02-04T21:12:52.026Z,7.30
2019-02-04T21:15:21.477Z,7.70
2019-02-04T21:17:50.618Z,7.03
2019-02-04T21:20:20.954Z,7.45
2019-02-04T21:22:49.869Z,7.20
2019-02-04T21:25:19.973Z,7.53
2019-02-04T21:27:49.076Z,7.20
2019-02-04T21:30:23.372Z,7.85
2019-02-04T21:32:52.313Z,8.45
2019-02-04T21:35:21.086Z,7.40
2019-02-04T21:37:52.201Z,7.92
2019-02-04T21:40:21.176Z,7.17
2019-02-04T21:42:51.216Z,7.05
2019-02-04T21:45:20.485Z,7.08
2019-02-04T21:47:49.298Z,8.10
2019-02-04T21:50:20.017Z,7.80
2019-02-04T21:52:48.883Z,7.33
2019-02-04T21:55:17.918Z,7.25
2019-02-04T21:57:46.926Z,6.97
2019-02-04T22:00:20.872Z,7.55
2019-02-04T22:02:50.915Z,7.47
2019-02-04T22:05:22.936Z,8.43
2019-02-04T22:07:51.732Z,7.20
2019-02-04T22:10:23.843Z,7.33
2019-02-04T22:12:53.000Z,7.55
2019-02-04T22:15:21.808Z,7.28
2019-02-04T22:17:51.499Z,7.83
2019-02-04T22:20:20.302Z,7.87
2019-02-04T22:22:49.140Z,8.00
2019-02-04T22:25:19.621Z,6.97
2019-02-04T22:27:49.287Z,8.00
2019-02-04T22:30:19.826Z,7.87
2019-02-04T22:32:48.689Z,7.60
2019-02-04T22:35:17.907Z,9.00
2019-02-04T22:37:47.324Z,8.63
2019-02-04T22:40:18.249Z,7.78
2019-02-04T22:42:47.020Z,8.18
2019-02-04T22:45:16.157Z,8.83
2019-02-04T22:47:44.996Z,7.50
2019-02-04T22:50:16.478Z,7.58
2019-02-04T22:52:45.257Z,8.20
2019-02-04T22:55:14.340Z,6.70
2019-02-04T22:57:43.097Z,7.40
2019-02-04T23:00:40.359Z,7.58
2019-02-04T23:03:09.141Z,7.20
2019-02-04T23:05:38.287Z,7.95
2019-02-04T23:08:07.257Z,8.18
2019-02-04T23:10:36.161Z,7.12
2019-02-04T23:13:06.998Z,7.05
2019-02-04T23:15:35.951Z,7.40
2019-02-04T23:18:04.921Z,6.97
2019-02-04T23:20:33.831Z,6.87
2019-02-04T23:23:03.398Z,7.60
2019-02-04T23:25:43.096Z,6.60
2019-02-04T23:28:04.804Z,7.58
2019-02-04T23:30:33.699Z,6.65
2019-02-04T23:33:03.067Z,7.33
2019-02-04T23:35:31.848Z,6.95
2019-02-04T23:38:00.676Z,6.67
2019-02-04T23:40:30.449Z,6.72
2019-02-04T23:42:59.217Z,6.97
2019-02-04T23:45:29.125Z,6.78
2019-02-04T23:47:58.835Z,6.62
2019-02-04T23:50:27.671Z,7.15
2019-02-04T23:52:56.547Z,7.22
2019-02-04T23:55:25.305Z,6.22
2019-02-04T23:57:54.180Z,7.05
